Relevés horaires Bierset (Belgique)


Relevés horaires à Bierset - Jeudi 11 Avr. 2019
Heure UTC1 Température [°C] Vent [km/h] Hum. [%] Pres.4 [hPa] Visi. [Km] Nébu. [octa] Préc.5 [mm] Cond.
2m. Res. Ros. Dir.2 Vit. Moy. Raf.3
23:00 3.9 1.5 -3.6 ENE 9.3 11.1 18.5 58 1024(0.3/3h) 30 1/8 -- --
22:00 4.5 2.2 -3.2 NE 9.3 9.3 14.8 57 1023.9(0.7/3h) 30 1/8 -- --
21:00 4.1 2.2 -2.0 NE 7.4 7.4 13.0 64 1023.7(0.9/3h) 20 1/8 -- --
20:00 4.7 3.5 -1.7 NE 5.6 5.6 7.4 63 1023.7(1.2/3h) 20 1/8 -- --
19:00 5.9 4.9 -1.8 NNE 5.6 7.4 13.0 58 1023.1(0.9/3h) 20 1/8 -- --
18:00 8.2 7 -2.0 N 7.4 11.1 25.9 49 1022.4(0.4/3h) 20 1/8 0/12h
--
17:00 9.4 8 -2.1 N 9.3 11.1 14.8 44 1022.1(0.0/3h) 20 1/8 -- --
16:00 10.1 8.9 -2.5 N 9.3 11.1 18.5 41 1021.8(-0.7/3h) 20 1/8 -- --
16:00 10.1 8.9 -2.5 N 9.3 11.1 18.5 41 1021.8(-0.7/3h) 20 1/8 -- --
15:00 10.0 8.8 -2.6 NE 9.3 11.1 25.9 41 1021.9(-0.8/3h) 20 1/8 -- --
15:00 10.0 8.8 -2.6 NE 9.3 11.1 25.9 41 1021.9(-0.8/3h) 20 1/8 -- --
14:00 10.5 9.7 -1.6 NE 7.4 11.1 22.2 43 1022(-0.5/3h) 20 1/8 -- --
13:00 9.9 8.3 -1.2 NE 11.1 11.1 25.9 46 1022.5(-0.1/3h) 20 1/8 -- --
12:00 9.5 7.8 -1.7 NE 11.1 13.0 31.5 45 1022.7(0.2/3h) 20 1/8 0/6h
--
12:00 9.5 7.8 -1.7 NE 11.1 13.0 31.5 45 1022.7(0.2/3h) 20 1/8 0/6h
--
11:00 8.6 6.8 -1.2 NE 11.1 11.1 20.4 50 1022.7(0.2/3h) 20 1/8 -- --
10:00 7.6 6.3 -1.1 NE 7.4 9.3 14.8 54 1022.8(0.5/3h) 20 0/8 -- --
09:00 5.7 4.7 -1.2 NE 5.6 7.4 31.5 61 1022.9(0.8/3h) 20 0/8 -- --
08:00 3.5 2.1 -1.1 N 5.6 7.4 31.5 72 1022.9(1.1/3h) 20 0/8 -- --
07:00 2.3 0.8 -1.5 NE 5.6 7.4 9.3 76 1022.7(1.2/3h) 20 0/8 -- --
06:00 -0.1 -0.1 -2.0 NNE 1.9 7.4 9.3 87 1022.5(1.2/3h) 20 0/8 0/12h
--
05:00 -0.3 -0.3 -2.3 NE 3.7 5.6 9.3 86 1022.1(1.1/3h) 20 0/8 -- --
04:00 -0.1 -2 -2.0 N 5.6 5.6 7.4 87 1021.7(1.0/3h) 30 0/8 -- --
03:00 0.2 -1.6 -2.0 NE 5.6 7.4 9.3 85 1021.3(0.6/3h) 30 0/8 -- --

1 Coordinated Universal Time. Actuellement il est 02:00 locale et 00:00 UTC.

2 Le vent souffle depuis la direction indiquée vers la direction oposée.

3 Les rafales max. sont disponible 40 min après l'heure du relevé.

4 Pour les stations d'altitude (plus de 600m) le géopotentiel du niveau le plus proche de la pression obligatoire est indiqué.

5 Les stations disposant d'un diffuseur peuvent indiquer "trace". Cela signifie que des précipitations ont touchés le sol mais que la quantité est inférieure à 0.1 mm.

Récapitulatif de la journée
Température [°C] Vent [km/h] Ensoleillement4 [h] Precipitations totale5 [mm] Pression [Hpa]
Min1 Max.2 Moy.3 Max. Min Max.
-0.9 10.6 9.3 31.5 0 h 0 min 0 1021.3 1024.0

1 Température minimale relevée entre 18:00 UTC la veille et 18:00 UTC le jour donné.

2 Température maximale relevée entre 06:00 UTC le jour donné et 06:00 UTC le lendemain.

3 Vent moyen de la journée basé sur les relevés horaires.

4 Ensoleillement en heures relevé entre 06:00 UTC la veille et 06:00 UTC le jour donné.

5 Précipitations totales tombées entre 06:00 UTC la jour donné et 06:00 UTC le lendemain.

Graphiques horaires